createdAt,value
2018-12-14T00:00:11.771Z,-0.67
2018-12-14T00:02:40.929Z,-0.55
2018-12-14T00:05:10.064Z,-0.67
2018-12-14T00:07:38.661Z,-0.62
2018-12-14T00:10:08.792Z,-0.77
2018-12-14T00:12:37.255Z,-0.66
2018-12-14T00:15:07.291Z,-0.71
2018-12-14T00:17:36.215Z,-0.63
2018-12-14T00:20:07.311Z,-0.55
2018-12-14T00:22:35.831Z,-0.54
2018-12-14T00:25:05.366Z,-0.59
2018-12-14T00:27:34.007Z,-0.73
2018-12-14T00:30:02.958Z,-0.65
2018-12-14T00:32:31.650Z,-0.50
2018-12-14T00:35:00.125Z,-0.51
2018-12-14T00:37:28.643Z,-0.64
2018-12-14T00:39:57.166Z,-0.73
2018-12-14T00:42:25.710Z,-0.56
2018-12-14T00:44:54.288Z,-0.74
2018-12-14T00:47:22.915Z,-0.61
2018-12-14T00:49:53.367Z,-0.54
2018-12-14T00:52:21.925Z,-0.58
2018-12-14T00:54:51.063Z,-0.65
2018-12-14T00:57:19.558Z,-0.67
2018-12-14T00:59:48.094Z,-0.50
2018-12-14T01:02:21.882Z,-0.64
2018-12-14T01:04:50.371Z,-0.47
2018-12-14T01:07:18.960Z,-0.56
2018-12-14T01:09:47.542Z,-0.68
2018-12-14T01:12:16.016Z,-0.72
2018-12-14T01:14:45.230Z,-0.72
2018-12-14T01:17:13.706Z,-0.65
2018-12-14T01:19:42.254Z,-0.58
2018-12-14T01:22:10.717Z,-0.72
2018-12-14T01:24:39.276Z,-0.64
2018-12-14T01:27:07.745Z,-0.52
2018-12-14T01:29:36.305Z,-0.72
2018-12-14T01:32:04.856Z,-0.61
2018-12-14T01:34:33.483Z,-0.48
2018-12-14T01:37:02.120Z,-0.58
2018-12-14T01:39:31.389Z,-0.45
2018-12-14T01:42:04.872Z,-0.63
2018-12-14T01:44:30.573Z,-0.57
2018-12-14T01:46:59.049Z,-0.41
2018-12-14T01:49:27.568Z,-0.79
2018-12-14T01:51:56.238Z,-0.87
2018-12-14T01:54:24.726Z,-0.86
2018-12-14T01:56:53.794Z,-0.78
2018-12-14T01:59:22.322Z,-0.52
2018-12-14T02:01:50.878Z,-0.46
2018-12-14T02:04:19.386Z,-0.63
2018-12-14T02:06:47.971Z,-0.72
2018-12-14T02:09:16.579Z,-0.43
2018-12-14T02:11:45.151Z,-0.65
2018-12-14T02:14:14.261Z,-0.58
2018-12-14T02:16:42.827Z,-0.67
2018-12-14T02:19:11.451Z,-0.75
2018-12-14T02:21:39.926Z,-0.63
2018-12-14T02:24:08.426Z,-0.74
2018-12-14T02:26:39.848Z,-0.63
2018-12-14T02:29:08.342Z,-0.59
2018-12-14T02:31:36.803Z,-0.54
2018-12-14T02:34:05.426Z,-0.65
2018-12-14T02:36:34.043Z,-0.75
2018-12-14T02:39:02.519Z,-0.66
2018-12-14T02:41:31.009Z,-0.51
2018-12-14T02:43:59.554Z,-0.67
2018-12-14T02:46:28.028Z,-0.74
2018-12-14T02:48:56.547Z,-0.60
2018-12-14T02:51:25.085Z,-0.58
2018-12-14T02:53:53.606Z,-0.81
2018-12-14T02:56:22.176Z,-0.81
2018-12-14T02:58:50.778Z,-0.80
2018-12-14T03:01:19.301Z,-0.55
2018-12-14T03:03:47.859Z,-0.72
2018-12-14T03:06:16.337Z,-0.78
2018-12-14T03:08:44.930Z,-0.77
2018-12-14T03:11:13.454Z,-0.78
2018-12-14T03:13:42.523Z,-0.75
2018-12-14T03:16:11.142Z,-0.79
2018-12-14T03:18:39.692Z,-0.95
2018-12-14T03:21:08.222Z,-0.75
2018-12-14T03:23:36.792Z,-0.77
2018-12-14T03:26:05.458Z,-0.63
2018-12-14T03:28:34.632Z,-0.71
2018-12-14T03:31:03.239Z,-0.83
2018-12-14T03:33:31.883Z,-0.84
2018-12-14T03:36:00.375Z,-0.69
2018-12-14T03:38:28.926Z,-0.81
2018-12-14T03:40:57.429Z,-0.91
2018-12-14T03:43:25.901Z,-0.82
2018-12-14T03:45:54.963Z,-0.85
2018-12-14T03:48:23.614Z,-0.82
2018-12-14T03:50:52.152Z,-0.81
2018-12-14T03:53:20.654Z,-0.69
2018-12-14T03:55:49.169Z,-0.78
2018-12-14T03:58:17.644Z,-0.83
2018-12-14T04:00:46.479Z,-0.93
2018-12-14T04:03:15.534Z,-0.84
2018-12-14T04:05:44.096Z,-0.68
2018-12-14T04:08:12.629Z,-0.80
2018-12-14T04:10:41.126Z,-0.69
2018-12-14T04:13:09.675Z,-0.81
2018-12-14T04:15:38.217Z,-0.81
2018-12-14T04:18:06.753Z,-0.92
2018-12-14T04:20:35.360Z,-0.90
2018-12-14T04:23:04.438Z,-0.94
2018-12-14T04:25:33.111Z,-0.95
2018-12-14T04:28:01.654Z,-0.96
2018-12-14T04:30:30.214Z,-0.73
2018-12-14T04:32:59.224Z,-0.77
2018-12-14T04:35:27.943Z,-0.76
2018-12-14T04:37:56.408Z,-0.87
2018-12-14T04:40:25.067Z,-0.83
2018-12-14T04:42:53.656Z,-1.14
2018-12-14T04:45:22.380Z,-0.95
2018-12-14T04:47:50.931Z,-1.16
2018-12-14T04:50:19.413Z,-1.10
2018-12-14T04:52:48.015Z,-1.12
2018-12-14T04:55:17.049Z,-0.94
2018-12-14T04:57:45.537Z,-0.95
2018-12-14T05:00:14.343Z,-0.94
2018-12-14T05:02:42.803Z,-0.93
2018-12-14T05:05:11.422Z,-0.94
2018-12-14T05:07:39.982Z,-0.89
2018-12-14T05:10:08.661Z,-0.86
2018-12-14T05:12:37.114Z,-0.94
2018-12-14T05:15:06.277Z,-1.05
2018-12-14T05:17:35.586Z,-1.09
2018-12-14T05:20:04.871Z,-1.07
2018-12-14T05:22:33.612Z,-1.16
2018-12-14T05:25:02.161Z,-1.03
2018-12-14T05:27:30.627Z,-1.17
2018-12-14T05:29:59.559Z,-1.05
2018-12-14T05:32:28.102Z,-1.13
2018-12-14T05:34:56.578Z,-1.20
2018-12-14T05:37:25.107Z,-0.94
2018-12-14T05:39:53.931Z,-1.04
2018-12-14T05:42:23.127Z,-0.97
2018-12-14T05:44:53.541Z,-1.08
2018-12-14T05:47:24.178Z,-1.14
2018-12-14T05:49:54.808Z,-1.06
2018-12-14T05:52:24.963Z,-1.11
2018-12-14T05:54:54.475Z,-1.13
2018-12-14T05:57:23.448Z,-0.95
2018-12-14T05:59:52.066Z,-1.13
2018-12-14T06:02:22.507Z,-1.05
2018-12-14T06:04:53.096Z,-1.20
2018-12-14T06:07:22.314Z,-1.14
2018-12-14T06:09:51.038Z,-1.19
2018-12-14T06:12:20.872Z,-1.25
2018-12-14T06:14:49.992Z,-1.33
2018-12-14T06:17:18.739Z,-1.22
2018-12-14T06:19:47.733Z,-1.23
2018-12-14T06:22:16.732Z,-1.10
2018-12-14T06:24:45.623Z,-1.29
2018-12-14T06:27:15.050Z,-1.21
2018-12-14T06:29:44.260Z,-1.51
2018-12-14T06:32:13.205Z,-1.41
2018-12-14T06:34:41.825Z,-1.42
2018-12-14T06:37:10.923Z,-1.47
2018-12-14T06:39:39.794Z,-1.37
2018-12-14T06:42:08.924Z,-1.38
2018-12-14T06:44:37.713Z,-1.43
2018-12-14T06:47:06.257Z,-1.35
2018-12-14T06:49:35.494Z,-1.41
2018-12-14T06:52:04.246Z,-1.60
2018-12-14T06:54:32.883Z,-1.62
2018-12-14T06:57:02.402Z,-1.54
2018-12-14T06:59:31.825Z,-1.66
2018-12-14T07:02:00.446Z,-1.56
2018-12-14T07:04:29.177Z,-1.56
2018-12-14T07:07:03.837Z,-1.45
2018-12-14T07:09:28.205Z,-1.54
2018-12-14T07:11:56.697Z,-1.53
2018-12-14T07:14:25.233Z,-1.52
2018-12-14T07:16:53.778Z,-1.73
2018-12-14T07:19:22.355Z,-1.80
2018-12-14T07:21:50.842Z,-1.82
2018-12-14T07:24:19.379Z,-1.82
2018-12-14T07:26:48.232Z,-1.67
2018-12-14T07:29:16.738Z,-1.68
2018-12-14T07:31:45.382Z,-1.84
2018-12-14T07:34:13.980Z,-1.86
2018-12-14T07:36:42.542Z,-1.80
2018-12-14T07:39:11.622Z,-1.70
2018-12-14T07:41:40.222Z,-1.98
2018-12-14T07:44:08.890Z,-1.85
2018-12-14T07:46:37.363Z,-1.81
2018-12-14T07:49:06.067Z,-1.81
2018-12-14T07:51:34.549Z,-1.67
2018-12-14T07:54:03.061Z,-1.75
2018-12-14T07:56:32.244Z,-1.51
2018-12-14T07:59:01.076Z,-1.64
2018-12-14T08:01:29.617Z,-1.77
2018-12-14T08:03:58.110Z,-1.43
2018-12-14T08:06:26.831Z,-1.61
2018-12-14T08:08:55.555Z,-1.51
2018-12-14T08:11:24.076Z,-1.55
2018-12-14T08:13:52.791Z,-1.31
2018-12-14T08:16:21.386Z,-1.62
2018-12-14T08:18:50.071Z,-1.32
2018-12-14T08:21:18.551Z,-1.34
2018-12-14T08:23:47.126Z,-1.34
2018-12-14T08:26:15.714Z,-1.38
2018-12-14T08:28:44.231Z,-1.39
2018-12-14T08:31:12.745Z,-1.35
2018-12-14T08:33:41.276Z,-1.28
2018-12-14T08:36:09.764Z,-1.59
2018-12-14T08:38:38.255Z,-1.37
2018-12-14T08:41:07.580Z,-1.45
2018-12-14T08:43:41.346Z,-1.24
2018-12-14T08:46:06.770Z,-1.26
2018-12-14T08:48:35.295Z,-1.33
2018-12-14T08:51:03.858Z,-1.32
2018-12-14T08:53:34.185Z,-1.26
2018-12-14T08:56:02.690Z,-0.96
2018-12-14T08:58:31.325Z,-0.96
2018-12-14T09:00:59.834Z,-0.82
2018-12-14T09:03:28.913Z,-0.60
2018-12-14T09:05:57.545Z,-0.50
2018-12-14T09:08:26.767Z,-0.67
2018-12-14T09:10:55.285Z,-0.53
2018-12-14T09:13:24.236Z,-0.69
2018-12-14T09:15:52.878Z,-0.31
2018-12-14T09:18:21.422Z,-0.04
2018-12-14T09:20:49.891Z,0.38
2018-12-14T09:23:18.402Z,0.36
2018-12-14T09:25:46.873Z,0.20
2018-12-14T09:28:15.467Z,-0.45
2018-12-14T09:30:44.018Z,0.13
2018-12-14T09:33:12.575Z,-0.13
2018-12-14T09:35:41.081Z,0.19
2018-12-14T09:38:09.554Z,0.19
2018-12-14T09:40:38.182Z,0.65
2018-12-14T09:43:06.692Z,1.00
2018-12-14T09:45:35.147Z,0.56
2018-12-14T09:48:03.792Z,0.92
2018-12-14T09:50:32.330Z,1.35
2018-12-14T09:53:00.938Z,1.50
2018-12-14T09:55:29.508Z,2.11
2018-12-14T09:57:58.787Z,1.78
2018-12-14T10:00:27.302Z,1.79
2018-12-14T10:02:55.893Z,2.46
2018-12-14T10:05:24.385Z,2.40
2018-12-14T10:07:52.889Z,2.58
2018-12-14T10:10:21.582Z,2.41
2018-12-14T10:12:50.066Z,1.89
2018-12-14T10:15:18.970Z,2.13
2018-12-14T10:17:47.538Z,1.67
2018-12-14T10:20:17.421Z,1.85
2018-12-14T10:22:46.110Z,2.53
2018-12-14T10:25:15.163Z,2.98
2018-12-14T10:27:44.413Z,1.58
2018-12-14T10:30:12.930Z,1.48
2018-12-14T10:32:41.540Z,0.98
2018-12-14T10:35:10.354Z,1.62
2018-12-14T10:37:38.854Z,2.21
2018-12-14T10:40:09.159Z,2.49
2018-12-14T10:42:37.760Z,2.22
2018-12-14T10:45:06.939Z,2.06
2018-12-14T10:47:36.063Z,2.07
2018-12-14T10:50:05.065Z,1.51
2018-12-14T10:52:33.625Z,1.57
2018-12-14T10:55:02.179Z,0.75
2018-12-14T10:57:30.739Z,0.48
2018-12-14T10:59:59.268Z,0.99
2018-12-14T11:02:27.910Z,0.38
2018-12-14T11:04:56.463Z,0.67
2018-12-14T11:07:25.075Z,0.47
2018-12-14T11:09:53.528Z,0.37
2018-12-14T11:12:22.076Z,0.56
2018-12-14T11:14:50.586Z,0.45
2018-12-14T11:17:20.339Z,0.67
2018-12-14T11:19:48.864Z,0.21
2018-12-14T11:22:20.955Z,0.35
2018-12-14T11:24:49.534Z,-0.09
2018-12-14T11:27:18.690Z,0.03
2018-12-14T11:29:47.212Z,0.21
2018-12-14T11:32:15.754Z,0.32
2018-12-14T11:34:44.287Z,0.25
2018-12-14T11:37:12.813Z,0.22
2018-12-14T11:39:41.294Z,-0.14
2018-12-14T11:42:10.738Z,-0.24
2018-12-14T11:44:39.283Z,-0.13
2018-12-14T11:47:07.818Z,0.05
2018-12-14T11:49:36.278Z,0.04
2018-12-14T11:52:04.810Z,-0.10
2018-12-14T11:54:33.280Z,-0.06
2018-12-14T11:57:01.854Z,-0.10
2018-12-14T11:59:30.525Z,-0.13
2018-12-14T12:01:59.262Z,0.02
2018-12-14T12:04:27.750Z,-0.10
2018-12-14T12:06:56.266Z,-0.03
2018-12-14T12:09:24.770Z,0.10
2018-12-14T12:11:53.282Z,-0.12
2018-12-14T12:14:26.927Z,-0.18
2018-12-14T12:16:54.193Z,-0.21
2018-12-14T12:19:22.684Z,-0.10
2018-12-14T12:21:52.403Z,-0.05
2018-12-14T12:24:20.970Z,0.05
2018-12-14T12:26:49.619Z,0.07
2018-12-14T12:29:18.190Z,-0.04
2018-12-14T12:31:46.766Z,-0.28
2018-12-14T12:34:15.309Z,-0.02
2018-12-14T12:36:43.878Z,-0.21
2018-12-14T12:39:12.466Z,-0.12
2018-12-14T12:41:41.590Z,-0.31
2018-12-14T12:44:10.110Z,0.08
2018-12-14T12:46:38.623Z,-0.04
2018-12-14T12:49:07.115Z,0.06
2018-12-14T12:51:35.722Z,0.01
2018-12-14T12:54:04.415Z,0.37
2018-12-14T12:56:35.914Z,0.05
2018-12-14T12:59:05.265Z,0.12
2018-12-14T13:01:34.446Z,0.11
2018-12-14T13:04:02.931Z,-0.09
2018-12-14T13:06:31.470Z,0.04
2018-12-14T13:08:59.988Z,0.26
2018-12-14T13:11:29.054Z,0.36
2018-12-14T13:13:57.723Z,0.30
2018-12-14T13:16:26.298Z,0.29
2018-12-14T13:18:54.786Z,0.36
2018-12-14T13:21:23.321Z,0.39
2018-12-14T13:23:52.430Z,0.07
2018-12-14T13:26:21.675Z,0.13
2018-12-14T13:28:50.250Z,0.12
2018-12-14T13:31:18.803Z,0.29
2018-12-14T13:33:47.392Z,0.44
2018-12-14T13:36:16.535Z,0.08
2018-12-14T13:38:45.462Z,0.18
2018-12-14T13:41:14.158Z,0.04
2018-12-14T13:43:42.706Z,-0.08
2018-12-14T13:46:11.322Z,0.06
2018-12-14T13:48:39.849Z,0.23
2018-12-14T13:51:08.433Z,0.17
2018-12-14T13:53:36.945Z,0.43
2018-12-14T13:56:06.255Z,0.15
2018-12-14T13:58:34.767Z,0.10
2018-12-14T14:01:03.271Z,-0.15
2018-12-14T14:03:31.801Z,-0.04
2018-12-14T14:06:00.294Z,-0.01
2018-12-14T14:08:28.804Z,0.04
2018-12-14T14:10:57.356Z,0.24
2018-12-14T14:13:25.846Z,0.16
2018-12-14T14:15:54.325Z,0.10
2018-12-14T14:18:22.830Z,0.13
2018-12-14T14:20:51.353Z,0.05
2018-12-14T14:23:21.111Z,-0.02
2018-12-14T14:25:50.071Z,0.10
2018-12-14T14:28:19.146Z,0.24
2018-12-14T14:30:47.629Z,0.11
2018-12-14T14:33:16.138Z,0.09
2018-12-14T14:35:44.634Z,0.13
2018-12-14T14:38:13.167Z,0.06
2018-12-14T14:40:41.782Z,0.11
2018-12-14T14:43:10.436Z,-0.01
2018-12-14T14:45:39.122Z,0.08
2018-12-14T14:48:07.578Z,0.17
2018-12-14T14:50:36.064Z,0.21
2018-12-14T14:53:04.583Z,0.27
2018-12-14T14:55:33.172Z,0.16
2018-12-14T14:58:01.659Z,0.15
2018-12-14T15:00:32.189Z,0.10
2018-12-14T15:03:01.128Z,0.13
2018-12-14T15:05:29.626Z,0.21
2018-12-14T15:07:58.219Z,0.10
2018-12-14T15:10:27.711Z,0.19
2018-12-14T15:12:56.274Z,0.10
2018-12-14T15:15:24.807Z,0.02
2018-12-14T15:17:53.295Z,0.04
2018-12-14T15:20:21.906Z,0.11
2018-12-14T15:22:50.463Z,0.09
2018-12-14T15:25:19.157Z,0.13
2018-12-14T15:27:48.410Z,0.19
2018-12-14T15:30:16.986Z,0.12
2018-12-14T15:32:45.993Z,0.26
2018-12-14T15:35:14.502Z,0.17
2018-12-14T15:37:43.070Z,0.06
2018-12-14T15:40:12.861Z,-0.12
2018-12-14T15:42:41.366Z,-0.04
2018-12-14T15:45:13.216Z,-0.05
2018-12-14T15:47:42.263Z,-0.16
2018-12-14T15:50:11.026Z,-0.09
2018-12-14T15:52:40.397Z,0.02
2018-12-14T15:55:09.537Z,-0.09
2018-12-14T15:57:39.817Z,-0.10
2018-12-14T16:00:08.830Z,-0.17
2018-12-14T16:02:37.359Z,-0.04
2018-12-14T16:05:06.212Z,-0.20
2018-12-14T16:07:35.624Z,-0.13
2018-12-14T16:10:04.818Z,-0.25
2018-12-14T16:12:34.830Z,-0.16
2018-12-14T16:15:06.046Z,-0.16
2018-12-14T16:17:35.464Z,-0.22
2018-12-14T16:20:04.662Z,-0.12
2018-12-14T16:22:34.556Z,-0.37
2018-12-14T16:25:04.162Z,-0.29
2018-12-14T16:27:32.634Z,-0.26
2018-12-14T16:30:01.911Z,-0.32
2018-12-14T16:32:31.005Z,-0.23
2018-12-14T16:34:59.591Z,-0.15
2018-12-14T16:37:28.286Z,-0.19
2018-12-14T16:39:57.519Z,-0.35
2018-12-14T16:42:26.047Z,-0.27
2018-12-14T16:44:54.541Z,-0.23
2018-12-14T16:47:25.038Z,-0.18
2018-12-14T16:49:54.426Z,-0.23
2018-12-14T16:52:23.524Z,-0.36
2018-12-14T16:54:54.477Z,-0.29
2018-12-14T16:57:25.711Z,-0.17
2018-12-14T16:59:57.053Z,-0.13
2018-12-14T17:02:27.365Z,-0.05
2018-12-14T17:04:56.400Z,-0.12
2018-12-14T17:07:25.558Z,-0.12
2018-12-14T17:09:54.825Z,-0.06
2018-12-14T17:12:23.677Z,-0.15
2018-12-14T17:14:53.003Z,-0.23
2018-12-14T17:17:21.513Z,-0.31
2018-12-14T17:19:50.074Z,-0.32
2018-12-14T17:22:19.204Z,-0.33
2018-12-14T17:24:48.066Z,-0.22
2018-12-14T17:27:19.773Z,-0.13
2018-12-14T17:29:48.235Z,-0.21
2018-12-14T17:32:16.774Z,-0.29
2018-12-14T17:34:45.940Z,-0.17
2018-12-14T17:37:15.098Z,-0.30
2018-12-14T17:39:43.594Z,-0.34
2018-12-14T17:42:12.117Z,-0.26
2018-12-14T17:44:41.688Z,-0.27
2018-12-14T17:47:10.206Z,-0.30
2018-12-14T17:49:38.722Z,-0.24
2018-12-14T17:52:07.253Z,-0.20
2018-12-14T17:54:37.171Z,-0.32
2018-12-14T17:57:05.759Z,-0.18
2018-12-14T17:59:34.246Z,-0.31
2018-12-14T18:02:02.765Z,-0.36
2018-12-14T18:04:31.276Z,-0.27
2018-12-14T18:06:59.836Z,-0.36
2018-12-14T18:09:28.371Z,-0.34
2018-12-14T18:11:57.505Z,-0.36
2018-12-14T18:14:26.032Z,-0.17
2018-12-14T18:16:55.550Z,-0.42
2018-12-14T18:19:24.211Z,-0.47
2018-12-14T18:21:52.939Z,-0.41
2018-12-14T18:24:21.502Z,-0.40
2018-12-14T18:26:50.147Z,-0.29
2018-12-14T18:29:18.773Z,-0.32
2018-12-14T18:31:49.806Z,-0.35
2018-12-14T18:34:18.348Z,-0.38
2018-12-14T18:36:46.893Z,-0.44
2018-12-14T18:39:17.120Z,-0.39
2018-12-14T18:41:45.639Z,-0.48
2018-12-14T18:44:14.230Z,-0.51
2018-12-14T18:46:43.810Z,-0.34
2018-12-14T18:49:12.346Z,-0.32
2018-12-14T18:51:40.815Z,-0.33
2018-12-14T18:54:11.554Z,-0.38
2018-12-14T18:56:41.114Z,-0.46
2018-12-14T18:59:09.937Z,-0.48
2018-12-14T19:01:38.436Z,-0.40
2018-12-14T19:04:07.245Z,-0.40
2018-12-14T19:06:35.758Z,-0.40
2018-12-14T19:09:05.746Z,-0.44
2018-12-14T19:11:34.592Z,-0.46
2018-12-14T19:14:03.313Z,-0.60
2018-12-14T19:16:32.670Z,-0.48
2018-12-14T19:19:01.285Z,-0.40
2018-12-14T19:21:29.850Z,-0.45
2018-12-14T19:23:58.398Z,-0.44
2018-12-14T19:26:26.996Z,-0.38
2018-12-14T19:28:56.494Z,-0.43
2018-12-14T19:31:25.079Z,-0.32
2018-12-14T19:33:54.346Z,-0.26
2018-12-14T19:36:22.934Z,-0.39
2018-12-14T19:38:52.138Z,-0.49
2018-12-14T19:41:20.671Z,-0.52
2018-12-14T19:43:49.170Z,-0.38
2018-12-14T19:46:19.015Z,-0.38
2018-12-14T19:48:47.833Z,-0.41
2018-12-14T19:51:20.009Z,-0.54
2018-12-14T19:53:48.506Z,-0.49
2018-12-14T19:56:17.258Z,-0.37
2018-12-14T19:58:45.851Z,-0.32
2018-12-14T20:01:15.138Z,-0.22
2018-12-14T20:03:43.686Z,-0.42
2018-12-14T20:06:12.794Z,-0.41
2018-12-14T20:08:41.322Z,-0.50
2018-12-14T20:11:11.378Z,-0.51
2018-12-14T20:13:39.907Z,-0.24
2018-12-14T20:16:12.702Z,-0.34
2018-12-14T20:18:39.657Z,-0.20
2018-12-14T20:21:08.143Z,-0.24
2018-12-14T20:23:38.914Z,-0.36
2018-12-14T20:26:07.561Z,-0.46
2018-12-14T20:28:36.534Z,-0.50
2018-12-14T20:31:05.170Z,-0.45
2018-12-14T20:33:35.508Z,-0.30
2018-12-14T20:36:06.472Z,-0.33
2018-12-14T20:38:36.126Z,-0.46
2018-12-14T20:41:05.681Z,-0.50
2018-12-14T20:43:34.271Z,-0.54
2018-12-14T20:46:02.933Z,-0.39
2018-12-14T20:48:32.154Z,-0.44
2018-12-14T20:51:00.748Z,-0.28
2018-12-14T20:53:29.355Z,-0.39
2018-12-14T20:55:57.910Z,-0.28
2018-12-14T20:58:26.935Z,-0.40
2018-12-14T21:00:55.422Z,-0.36
2018-12-14T21:03:23.887Z,-0.37
2018-12-14T21:05:52.457Z,-0.30
2018-12-14T21:08:21.046Z,-0.22
2018-12-14T21:10:49.645Z,-0.06
2018-12-14T21:13:18.102Z,0.09
2018-12-14T21:15:46.607Z,-0.02
2018-12-14T21:18:15.167Z,-0.03
2018-12-14T21:20:43.748Z,-0.27
2018-12-14T21:23:12.239Z,-0.46
2018-12-14T21:25:40.727Z,-0.52
2018-12-14T21:28:09.195Z,-0.36
2018-12-14T21:30:37.673Z,-0.29
2018-12-14T21:33:06.246Z,-0.15
2018-12-14T21:35:35.361Z,-0.20
2018-12-14T21:38:04.413Z,-0.15
2018-12-14T21:40:33.042Z,-0.27
2018-12-14T21:43:01.965Z,-0.29
2018-12-14T21:45:30.571Z,-0.17
2018-12-14T21:47:59.750Z,-0.28
2018-12-14T21:50:28.329Z,-0.26
2018-12-14T21:52:56.823Z,-0.33
2018-12-14T21:55:25.354Z,-0.38
2018-12-14T21:57:55.446Z,-0.09
2018-12-14T22:00:23.939Z,-0.10
2018-12-14T22:02:52.623Z,-0.19
2018-12-14T22:05:21.114Z,-0.24
2018-12-14T22:07:49.598Z,-0.20
2018-12-14T22:10:18.208Z,-0.32
2018-12-14T22:12:46.775Z,-0.20
2018-12-14T22:15:15.381Z,-0.38
2018-12-14T22:17:43.963Z,-0.32
2018-12-14T22:20:12.465Z,-0.52
2018-12-14T22:22:40.929Z,-0.35
2018-12-14T22:25:09.591Z,-0.26
2018-12-14T22:27:38.089Z,-0.31
2018-12-14T22:30:07.041Z,-0.29
2018-12-14T22:32:35.806Z,-0.20
2018-12-14T22:35:04.510Z,-0.27
2018-12-14T22:37:33.103Z,-0.25
2018-12-14T22:40:01.718Z,-0.44
2018-12-14T22:42:30.237Z,-0.45
2018-12-14T22:44:58.761Z,-0.46
2018-12-14T22:47:27.222Z,-0.37
2018-12-14T22:49:55.719Z,-0.27
2018-12-14T22:52:24.168Z,-0.31
2018-12-14T22:54:52.670Z,-0.23
2018-12-14T22:57:21.129Z,-0.25
2018-12-14T22:59:49.659Z,-0.41
2018-12-14T23:02:18.177Z,-0.35
2018-12-14T23:04:46.661Z,-0.19
2018-12-14T23:07:15.914Z,-0.61
2018-12-14T23:09:44.394Z,-0.58
2018-12-14T23:12:12.937Z,-0.54
2018-12-14T23:14:41.449Z,-0.54
2018-12-14T23:17:10.494Z,-0.65
2018-12-14T23:19:39.033Z,-0.63
2018-12-14T23:22:07.565Z,-0.67
2018-12-14T23:24:36.018Z,-0.50
2018-12-14T23:27:04.488Z,-0.67
2018-12-14T23:29:33.000Z,-0.62
2018-12-14T23:32:01.490Z,-0.51
2018-12-14T23:34:29.975Z,-0.51
2018-12-14T23:36:58.438Z,-0.59
2018-12-14T23:39:26.996Z,-0.61
2018-12-14T23:41:55.463Z,-0.44
2018-12-14T23:44:23.922Z,-0.55
2018-12-14T23:46:58.648Z,-0.49
2018-12-14T23:49:22.933Z,-0.75
2018-12-14T23:51:51.466Z,-0.72
2018-12-14T23:54:19.940Z,-0.68
2018-12-14T23:56:48.421Z,-0.53
2018-12-14T23:59:16.926Z,-0.77
